sensor_id;sensor_type;location;lat;lon;timestamp;P1;durP1;ratioP1;P2;durP2;ratioP2
26102;SDS011;69760;49.380;8.998;2023-05-10T00:01:50;0.98;;;0.82;;
26102;SDS011;69760;49.380;8.998;2023-05-10T00:04:17;0.80;;;0.80;;
26102;SDS011;69760;49.380;8.998;2023-05-10T00:06:42;0.73;;;0.70;;
26102;SDS011;69760;49.380;8.998;2023-05-10T00:09:08;0.95;;;0.80;;
26102;SDS011;69760;49.380;8.998;2023-05-10T00:11:34;1.90;;;1.10;;
26102;SDS011;69760;49.380;8.998;2023-05-10T00:14:00;2.78;;;1.02;;
26102;SDS011;69760;49.380;8.998;2023-05-10T00:16:25;3.58;;;1.05;;
26102;SDS011;69760;49.380;8.998;2023-05-10T00:18:51;1.67;;;1.08;;
26102;SDS011;69760;49.380;8.998;2023-05-10T00:21:16;1.10;;;0.80;;
26102;SDS011;69760;49.380;8.998;2023-05-10T00:23:42;1.70;;;0.95;;
26102;SDS011;69760;49.380;8.998;2023-05-10T00:26:08;2.80;;;0.85;;
26102;SDS011;69760;49.380;8.998;2023-05-10T00:28:33;2.17;;;0.70;;
26102;SDS011;69760;49.380;8.998;2023-05-10T00:30:59;1.00;;;0.82;;
26102;SDS011;69760;49.380;8.998;2023-05-10T00:33:24;2.20;;;0.90;;
26102;SDS011;69760;49.380;8.998;2023-05-10T00:35:50;1.48;;;0.80;;
26102;SDS011;69760;49.380;8.998;2023-05-10T00:38:16;1.17;;;1.00;;
26102;SDS011;69760;49.380;8.998;2023-05-10T00:40:42;1.17;;;0.80;;
26102;SDS011;69760;49.380;8.998;2023-05-10T00:43:08;1.42;;;0.80;;
26102;SDS011;69760;49.380;8.998;2023-05-10T00:45:34;1.25;;;0.80;;
26102;SDS011;69760;49.380;8.998;2023-05-10T00:48:01;2.33;;;1.00;;
26102;SDS011;69760;49.380;8.998;2023-05-10T00:50:28;0.70;;;0.70;;
26102;SDS011;69760;49.380;8.998;2023-05-10T00:52:55;1.70;;;0.80;;
26102;SDS011;69760;49.380;8.998;2023-05-10T00:55:22;2.83;;;0.90;;
26102;SDS011;69760;49.380;8.998;2023-05-10T00:57:48;2.78;;;0.70;;
26102;SDS011;69760;49.380;8.998;2023-05-10T01:00:14;1.35;;;0.68;;
26102;SDS011;69760;49.380;8.998;2023-05-10T01:02:46;1.13;;;0.80;;
26102;SDS011;69760;49.380;8.998;2023-05-10T01:05:12;0.70;;;0.70;;
26102;SDS011;69760;49.380;8.998;2023-05-10T01:07:39;0.85;;;0.85;;
26102;SDS011;69760;49.380;8.998;2023-05-10T01:10:05;1.17;;;0.80;;
26102;SDS011;69760;49.380;8.998;2023-05-10T01:12:33;0.90;;;0.70;;
26102;SDS011;69760;49.380;8.998;2023-05-10T01:15:03;0.82;;;0.80;;
26102;SDS011;69760;49.380;8.998;2023-05-10T01:17:34;0.80;;;0.70;;
26102;SDS011;69760;49.380;8.998;2023-05-10T01:20:02;1.00;;;0.70;;
26102;SDS011;69760;49.380;8.998;2023-05-10T01:25:51;0.70;;;0.70;;
26102;SDS011;69760;49.380;8.998;2023-05-10T01:34:16;0.93;;;0.70;;
26102;SDS011;69760;49.380;8.998;2023-05-10T01:39:17;0.82;;;0.70;;
26102;SDS011;69760;49.380;8.998;2023-05-10T01:46:50;0.90;;;0.70;;
26102;SDS011;69760;49.380;8.998;2023-05-10T01:49:26;0.60;;;0.60;;
26102;SDS011;69760;49.380;8.998;2023-05-10T01:51:59;0.60;;;0.60;;
26102;SDS011;69760;49.380;8.998;2023-05-10T01:54:31;0.70;;;0.68;;
26102;SDS011;69760;49.380;8.998;2023-05-10T01:57:00;0.75;;;0.70;;
26102;SDS011;69760;49.380;8.998;2023-05-10T01:59:30;1.65;;;0.80;;
26102;SDS011;69760;49.380;8.998;2023-05-10T02:02:01;0.80;;;0.80;;
26102;SDS011;69760;49.380;8.998;2023-05-10T02:04:28;0.73;;;0.73;;
26102;SDS011;69760;49.380;8.998;2023-05-10T02:06:54;0.70;;;0.60;;
26102;SDS011;69760;49.380;8.998;2023-05-10T02:09:20;0.80;;;0.80;;
26102;SDS011;69760;49.380;8.998;2023-05-10T02:11:48;0.90;;;0.80;;
26102;SDS011;69760;49.380;8.998;2023-05-10T02:14:15;0.73;;;0.73;;
26102;SDS011;69760;49.380;8.998;2023-05-10T02:16:41;0.65;;;0.65;;
26102;SDS011;69760;49.380;8.998;2023-05-10T02:19:08;0.85;;;0.60;;
26102;SDS011;69760;49.380;8.998;2023-05-10T02:21:37;0.60;;;0.60;;
26102;SDS011;69760;49.380;8.998;2023-05-10T02:24:05;0.63;;;0.63;;
26102;SDS011;69760;49.380;8.998;2023-05-10T02:26:33;0.93;;;0.65;;
26102;SDS011;69760;49.380;8.998;2023-05-10T02:29:01;0.55;;;0.52;;
26102;SDS011;69760;49.380;8.998;2023-05-10T02:31:28;0.60;;;0.60;;
26102;SDS011;69760;49.380;8.998;2023-05-10T02:33:58;1.23;;;0.70;;
26102;SDS011;69760;49.380;8.998;2023-05-10T02:36:26;0.65;;;0.65;;
26102;SDS011;69760;49.380;8.998;2023-05-10T02:38:52;0.65;;;0.65;;
26102;SDS011;69760;49.380;8.998;2023-05-10T02:41:19;0.52;;;0.52;;
26102;SDS011;69760;49.380;8.998;2023-05-10T02:43:48;0.70;;;0.63;;
26102;SDS011;69760;49.380;8.998;2023-05-10T02:46:20;0.60;;;0.60;;
26102;SDS011;69760;49.380;8.998;2023-05-10T02:48:46;0.65;;;0.65;;
26102;SDS011;69760;49.380;8.998;2023-05-10T02:51:12;0.70;;;0.70;;
26102;SDS011;69760;49.380;8.998;2023-05-10T02:53:42;0.70;;;0.70;;
26102;SDS011;69760;49.380;8.998;2023-05-10T02:56:21;0.65;;;0.65;;
26102;SDS011;69760;49.380;8.998;2023-05-10T02:58:50;0.80;;;0.80;;
26102;SDS011;69760;49.380;8.998;2023-05-10T03:01:17;0.70;;;0.70;;
26102;SDS011;69760;49.380;8.998;2023-05-10T03:03:43;1.08;;;0.60;;
26102;SDS011;69760;49.380;8.998;2023-05-10T03:06:08;0.70;;;0.70;;
26102;SDS011;69760;49.380;8.998;2023-05-10T03:08:34;1.35;;;0.90;;
26102;SDS011;69760;49.380;8.998;2023-05-10T03:16:25;0.60;;;0.60;;
26102;SDS011;69760;49.380;8.998;2023-05-10T03:19:10;0.70;;;0.70;;
26102;SDS011;69760;49.380;8.998;2023-05-10T03:21:38;0.80;;;0.73;;
26102;SDS011;69760;49.380;8.998;2023-05-10T03:24:09;1.40;;;0.77;;
26102;SDS011;69760;49.380;8.998;2023-05-10T03:26:37;1.38;;;0.80;;
26102;SDS011;69760;49.380;8.998;2023-05-10T03:29:05;0.80;;;0.80;;
26102;SDS011;69760;49.380;8.998;2023-05-10T03:31:32;0.82;;;0.82;;
26102;SDS011;69760;49.380;8.998;2023-05-10T03:33:58;0.70;;;0.70;;
26102;SDS011;69760;49.380;8.998;2023-05-10T03:36:23;0.80;;;0.70;;
26102;SDS011;69760;49.380;8.998;2023-05-10T03:38:49;0.65;;;0.60;;
26102;SDS011;69760;49.380;8.998;2023-05-10T03:41:14;0.90;;;0.70;;
26102;SDS011;69760;49.380;8.998;2023-05-10T03:43:40;0.90;;;0.80;;
26102;SDS011;69760;49.380;8.998;2023-05-10T03:46:06;0.70;;;0.70;;
26102;SDS011;69760;49.380;8.998;2023-05-10T03:48:32;0.93;;;0.80;;
26102;SDS011;69760;49.380;8.998;2023-05-10T03:50:58;0.93;;;0.80;;
26102;SDS011;69760;49.380;8.998;2023-05-10T03:53:24;0.80;;;0.80;;
26102;SDS011;69760;49.380;8.998;2023-05-10T03:55:49;1.33;;;0.70;;
26102;SDS011;69760;49.380;8.998;2023-05-10T03:58:15;0.60;;;0.60;;
26102;SDS011;69760;49.380;8.998;2023-05-10T04:00:40;1.35;;;0.90;;
26102;SDS011;69760;49.380;8.998;2023-05-10T04:03:09;0.60;;;0.60;;
26102;SDS011;69760;49.380;8.998;2023-05-10T04:05:35;0.80;;;0.80;;
26102;SDS011;69760;49.380;8.998;2023-05-10T04:08:01;0.80;;;0.80;;
26102;SDS011;69760;49.380;8.998;2023-05-10T04:10:27;0.65;;;0.63;;
26102;SDS011;69760;49.380;8.998;2023-05-10T04:12:53;0.75;;;0.60;;
26102;SDS011;69760;49.380;8.998;2023-05-10T04:15:18;0.70;;;0.70;;
26102;SDS011;69760;49.380;8.998;2023-05-10T04:17:44;0.80;;;0.80;;
26102;SDS011;69760;49.380;8.998;2023-05-10T04:20:10;0.68;;;0.68;;
26102;SDS011;69760;49.380;8.998;2023-05-10T04:22:36;1.10;;;1.00;;
26102;SDS011;69760;49.380;8.998;2023-05-10T04:25:02;0.98;;;0.90;;
26102;SDS011;69760;49.380;8.998;2023-05-10T04:27:27;1.05;;;0.90;;
26102;SDS011;69760;49.380;8.998;2023-05-10T04:29:53;1.10;;;0.90;;
26102;SDS011;69760;49.380;8.998;2023-05-10T04:32:19;0.90;;;0.90;;
26102;SDS011;69760;49.380;8.998;2023-05-10T04:34:45;1.10;;;0.90;;
26102;SDS011;69760;49.380;8.998;2023-05-10T04:37:10;0.85;;;0.85;;
26102;SDS011;69760;49.380;8.998;2023-05-10T04:39:36;1.30;;;0.80;;
26102;SDS011;69760;49.380;8.998;2023-05-10T04:42:02;0.80;;;0.80;;
26102;SDS011;69760;49.380;8.998;2023-05-10T04:44:28;0.73;;;0.73;;
26102;SDS011;69760;49.380;8.998;2023-05-10T04:46:54;0.80;;;0.80;;
26102;SDS011;69760;49.380;8.998;2023-05-10T04:49:20;1.58;;;0.90;;
26102;SDS011;69760;49.380;8.998;2023-05-10T04:51:46;1.20;;;0.88;;
26102;SDS011;69760;49.380;8.998;2023-05-10T04:54:12;0.93;;;0.80;;
26102;SDS011;69760;49.380;8.998;2023-05-10T04:56:37;0.93;;;0.80;;
26102;SDS011;69760;49.380;8.998;2023-05-10T04:59:03;0.80;;;0.73;;
26102;SDS011;69760;49.380;8.998;2023-05-10T05:01:29;1.35;;;0.90;;
26102;SDS011;69760;49.380;8.998;2023-05-10T05:03:54;0.90;;;0.90;;
26102;SDS011;69760;49.380;8.998;2023-05-10T05:06:20;0.80;;;0.80;;
26102;SDS011;69760;49.380;8.998;2023-05-10T05:08:46;1.20;;;0.80;;
26102;SDS011;69760;49.380;8.998;2023-05-10T05:11:12;0.80;;;0.80;;
26102;SDS011;69760;49.380;8.998;2023-05-10T05:13:37;1.17;;;0.85;;
26102;SDS011;69760;49.380;8.998;2023-05-10T05:16:03;0.65;;;0.65;;
26102;SDS011;69760;49.380;8.998;2023-05-10T05:18:30;1.00;;;0.90;;
26102;SDS011;69760;49.380;8.998;2023-05-10T05:20:55;1.15;;;0.85;;
26102;SDS011;69760;49.380;8.998;2023-05-10T05:23:21;2.38;;;0.90;;
26102;SDS011;69760;49.380;8.998;2023-05-10T05:25:49;1.83;;;1.05;;
26102;SDS011;69760;49.380;8.998;2023-05-10T05:28:21;1.10;;;1.00;;
26102;SDS011;69760;49.380;8.998;2023-05-10T05:30:47;1.00;;;0.90;;
26102;SDS011;69760;49.380;8.998;2023-05-10T05:33:15;1.10;;;0.77;;
26102;SDS011;69760;49.380;8.998;2023-05-10T05:35:41;0.93;;;0.93;;
26102;SDS011;69760;49.380;8.998;2023-05-10T05:38:09;0.98;;;0.90;;
26102;SDS011;69760;49.380;8.998;2023-05-10T05:40:35;1.42;;;1.00;;
26102;SDS011;69760;49.380;8.998;2023-05-10T05:43:00;0.90;;;0.82;;
26102;SDS011;69760;49.380;8.998;2023-05-10T05:45:26;1.10;;;1.00;;
26102;SDS011;69760;49.380;8.998;2023-05-10T05:47:52;1.38;;;1.05;;
26102;SDS011;69760;49.380;8.998;2023-05-10T05:50:17;0.90;;;0.90;;
26102;SDS011;69760;49.380;8.998;2023-05-10T05:52:43;0.85;;;0.85;;
26102;SDS011;69760;49.380;8.998;2023-05-10T05:55:08;1.00;;;0.90;;
26102;SDS011;69760;49.380;8.998;2023-05-10T05:57:34;1.27;;;1.17;;
26102;SDS011;69760;49.380;8.998;2023-05-10T06:00:00;1.20;;;1.10;;
26102;SDS011;69760;49.380;8.998;2023-05-10T06:02:25;1.25;;;1.10;;
26102;SDS011;69760;49.380;8.998;2023-05-10T06:04:51;1.35;;;1.20;;
26102;SDS011;69760;49.380;8.998;2023-05-10T06:07:16;1.33;;;1.20;;
26102;SDS011;69760;49.380;8.998;2023-05-10T06:09:42;1.27;;;1.17;;
26102;SDS011;69760;49.380;8.998;2023-05-10T06:12:07;2.80;;;1.40;;
26102;SDS011;69760;49.380;8.998;2023-05-10T06:14:33;1.75;;;1.40;;
26102;SDS011;69760;49.380;8.998;2023-05-10T06:16:59;1.85;;;1.45;;
26102;SDS011;69760;49.380;8.998;2023-05-10T06:19:25;3.60;;;1.42;;
26102;SDS011;69760;49.380;8.998;2023-05-10T06:21:51;2.00;;;1.55;;
26102;SDS011;69760;49.380;8.998;2023-05-10T06:24:17;3.05;;;1.70;;
26102;SDS011;69760;49.380;8.998;2023-05-10T06:26:42;1.60;;;1.33;;
26102;SDS011;69760;49.380;8.998;2023-05-10T06:29:08;1.65;;;1.55;;
26102;SDS011;69760;49.380;8.998;2023-05-10T06:31:33;1.73;;;1.30;;
26102;SDS011;69760;49.380;8.998;2023-05-10T06:33:59;1.60;;;1.48;;
26102;SDS011;69760;49.380;8.998;2023-05-10T06:36:25;1.83;;;1.55;;
26102;SDS011;69760;49.380;8.998;2023-05-10T06:38:51;1.65;;;1.50;;
26102;SDS011;69760;49.380;8.998;2023-05-10T06:41:17;2.00;;;1.50;;
26102;SDS011;69760;49.380;8.998;2023-05-10T06:43:42;2.45;;;1.35;;
26102;SDS011;69760;49.380;8.998;2023-05-10T06:46:08;1.65;;;1.45;;
26102;SDS011;69760;49.380;8.998;2023-05-10T06:48:34;2.50;;;2.00;;
26102;SDS011;69760;49.380;8.998;2023-05-10T06:50:59;2.05;;;1.63;;
26102;SDS011;69760;49.380;8.998;2023-05-10T06:53:25;1.83;;;1.58;;
26102;SDS011;69760;49.380;8.998;2023-05-10T06:55:51;1.63;;;1.52;;
26102;SDS011;69760;49.380;8.998;2023-05-10T06:58:17;2.45;;;1.67;;
26102;SDS011;69760;49.380;8.998;2023-05-10T07:00:42;2.53;;;1.85;;
26102;SDS011;69760;49.380;8.998;2023-05-10T07:03:09;1.63;;;1.52;;
26102;SDS011;69760;49.380;8.998;2023-05-10T07:05:35;1.45;;;1.35;;
26102;SDS011;69760;49.380;8.998;2023-05-10T07:08:01;1.60;;;1.50;;
26102;SDS011;69760;49.380;8.998;2023-05-10T07:10:26;2.08;;;1.60;;
26102;SDS011;69760;49.380;8.998;2023-05-10T07:12:52;4.07;;;1.75;;
26102;SDS011;69760;49.380;8.998;2023-05-10T07:15:18;2.28;;;1.63;;
26102;SDS011;69760;49.380;8.998;2023-05-10T07:17:43;1.48;;;1.35;;
26102;SDS011;69760;49.380;8.998;2023-05-10T07:20:09;2.95;;;1.50;;
26102;SDS011;69760;49.380;8.998;2023-05-10T07:22:35;1.55;;;1.45;;
26102;SDS011;69760;49.380;8.998;2023-05-10T07:25:01;1.40;;;1.30;;
26102;SDS011;69760;49.380;8.998;2023-05-10T07:27:27;1.50;;;1.40;;
26102;SDS011;69760;49.380;8.998;2023-05-10T07:29:52;1.35;;;1.25;;
26102;SDS011;69760;49.380;8.998;2023-05-10T07:32:18;1.30;;;1.20;;
26102;SDS011;69760;49.380;8.998;2023-05-10T07:34:43;1.80;;;1.38;;
26102;SDS011;69760;49.380;8.998;2023-05-10T07:37:09;1.40;;;1.30;;
26102;SDS011;69760;49.380;8.998;2023-05-10T07:39:34;1.50;;;1.27;;
26102;SDS011;69760;49.380;8.998;2023-05-10T07:42:00;2.80;;;1.20;;
26102;SDS011;69760;49.380;8.998;2023-05-10T07:44:26;2.58;;;1.38;;
26102;SDS011;69760;49.380;8.998;2023-05-10T07:46:51;1.67;;;1.50;;
26102;SDS011;69760;49.380;8.998;2023-05-10T07:49:17;1.42;;;1.33;;
26102;SDS011;69760;49.380;8.998;2023-05-10T07:51:43;2.15;;;1.50;;
26102;SDS011;69760;49.380;8.998;2023-05-10T07:54:08;2.58;;;1.27;;
26102;SDS011;69760;49.380;8.998;2023-05-10T07:56:34;3.15;;;1.50;;
26102;SDS011;69760;49.380;8.998;2023-05-10T07:59:00;1.25;;;1.15;;
26102;SDS011;69760;49.380;8.998;2023-05-10T08:01:27;1.60;;;1.50;;
26102;SDS011;69760;49.380;8.998;2023-05-10T08:03:56;1.45;;;1.30;;
26102;SDS011;69760;49.380;8.998;2023-05-10T08:06:21;1.85;;;1.30;;
26102;SDS011;69760;49.380;8.998;2023-05-10T08:08:47;1.73;;;1.30;;
26102;SDS011;69760;49.380;8.998;2023-05-10T08:11:17;1.33;;;1.23;;
26102;SDS011;69760;49.380;8.998;2023-05-10T08:13:43;1.42;;;1.30;;
26102;SDS011;69760;49.380;8.998;2023-05-10T08:16:10;1.98;;;1.30;;
26102;SDS011;69760;49.380;8.998;2023-05-10T08:18:35;1.60;;;1.38;;
26102;SDS011;69760;49.380;8.998;2023-05-10T08:21:01;2.17;;;1.40;;
26102;SDS011;69760;49.380;8.998;2023-05-10T08:23:27;1.73;;;1.40;;
26102;SDS011;69760;49.380;8.998;2023-05-10T08:25:53;1.88;;;1.30;;
26102;SDS011;69760;49.380;8.998;2023-05-10T08:28:18;2.25;;;1.48;;
26102;SDS011;69760;49.380;8.998;2023-05-10T08:30:44;1.65;;;1.55;;
26102;SDS011;69760;49.380;8.998;2023-05-10T08:33:09;2.15;;;1.40;;
26102;SDS011;69760;49.380;8.998;2023-05-10T08:35:35;1.77;;;1.40;;
26102;SDS011;69760;49.380;8.998;2023-05-10T08:38:01;2.10;;;1.50;;
26102;SDS011;69760;49.380;8.998;2023-05-10T08:40:26;3.97;;;1.60;;
26102;SDS011;69760;49.380;8.998;2023-05-10T08:42:58;2.30;;;1.30;;
26102;SDS011;69760;49.380;8.998;2023-05-10T08:45:32;3.75;;;1.50;;
26102;SDS011;69760;49.380;8.998;2023-05-10T08:48:02;1.60;;;1.50;;
26102;SDS011;69760;49.380;8.998;2023-05-10T08:50:30;1.67;;;1.45;;
26102;SDS011;69760;49.380;8.998;2023-05-10T08:52:57;1.70;;;1.60;;
26102;SDS011;69760;49.380;8.998;2023-05-10T08:55:26;1.88;;;1.38;;
26102;SDS011;69760;49.380;8.998;2023-05-10T08:57:52;2.60;;;1.30;;
26102;SDS011;69760;49.380;8.998;2023-05-10T09:00:18;1.40;;;1.30;;
26102;SDS011;69760;49.380;8.998;2023-05-10T09:02:45;1.40;;;1.30;;
26102;SDS011;69760;49.380;8.998;2023-05-10T09:05:11;2.00;;;1.50;;
26102;SDS011;69760;49.380;8.998;2023-05-10T09:07:37;1.40;;;1.30;;
26102;SDS011;69760;49.380;8.998;2023-05-10T09:10:03;1.67;;;1.50;;
26102;SDS011;69760;49.380;8.998;2023-05-10T09:12:29;1.30;;;1.20;;
26102;SDS011;69760;49.380;8.998;2023-05-10T09:14:55;1.63;;;1.27;;
26102;SDS011;69760;49.380;8.998;2023-05-10T09:17:24;1.35;;;1.20;;
26102;SDS011;69760;49.380;8.998;2023-05-10T09:19:58;1.40;;;1.30;;
26102;SDS011;69760;49.380;8.998;2023-05-10T09:22:24;1.83;;;1.60;;
26102;SDS011;69760;49.380;8.998;2023-05-10T09:25:12;1.40;;;1.30;;
26102;SDS011;69760;49.380;8.998;2023-05-10T09:27:37;1.33;;;1.23;;
26102;SDS011;69760;49.380;8.998;2023-05-10T09:30:04;1.40;;;1.30;;
26102;SDS011;69760;49.380;8.998;2023-05-10T09:32:44;1.30;;;1.20;;
26102;SDS011;69760;49.380;8.998;2023-05-10T09:35:12;1.15;;;1.10;;
26102;SDS011;69760;49.380;8.998;2023-05-10T09:37:40;2.55;;;1.10;;
26102;SDS011;69760;49.380;8.998;2023-05-10T09:40:14;1.52;;;1.30;;
26102;SDS011;69760;49.380;8.998;2023-05-10T09:45:27;1.15;;;1.05;;
26102;SDS011;69760;49.380;8.998;2023-05-10T09:47:56;1.45;;;1.20;;
26102;SDS011;69760;49.380;8.998;2023-05-10T09:50:23;2.70;;;1.30;;
26102;SDS011;69760;49.380;8.998;2023-05-10T09:52:54;1.33;;;1.05;;
26102;SDS011;69760;49.380;8.998;2023-05-10T09:55:24;1.27;;;1.17;;
26102;SDS011;69760;49.380;8.998;2023-05-10T09:58:07;1.83;;;1.40;;
26102;SDS011;69760;49.380;8.998;2023-05-10T10:00:38;1.33;;;1.15;;
26102;SDS011;69760;49.380;8.998;2023-05-10T10:03:05;2.25;;;1.20;;
26102;SDS011;69760;49.380;8.998;2023-05-10T10:05:32;1.27;;;1.10;;
26102;SDS011;69760;49.380;8.998;2023-05-10T10:07:59;1.30;;;1.20;;
26102;SDS011;69760;49.380;8.998;2023-05-10T10:10:27;2.55;;;1.20;;
26102;SDS011;69760;49.380;8.998;2023-05-10T10:12:53;1.77;;;1.30;;
26102;SDS011;69760;49.380;8.998;2023-05-10T10:15:22;2.15;;;1.30;;
26102;SDS011;69760;49.380;8.998;2023-05-10T10:17:49;2.15;;;1.30;;
26102;SDS011;69760;49.380;8.998;2023-05-10T10:20:16;2.70;;;1.50;;
26102;SDS011;69760;49.380;8.998;2023-05-10T10:22:42;3.05;;;1.80;;
26102;SDS011;69760;49.380;8.998;2023-05-10T10:25:09;3.33;;;1.70;;
26102;SDS011;69760;49.380;8.998;2023-05-10T10:33:18;3.45;;;1.80;;
26102;SDS011;69760;49.380;8.998;2023-05-10T10:35:58;2.95;;;1.67;;
26102;SDS011;69760;49.380;8.998;2023-05-10T10:38:25;3.20;;;1.80;;
26102;SDS011;69760;49.380;8.998;2023-05-10T10:41:03;4.75;;;1.83;;
26102;SDS011;69760;49.380;8.998;2023-05-10T10:44:21;4.03;;;1.95;;
26102;SDS011;69760;49.380;8.998;2023-05-10T10:47:00;3.38;;;1.70;;
26102;SDS011;69760;49.380;8.998;2023-05-10T10:49:30;5.15;;;1.70;;
26102;SDS011;69760;49.380;8.998;2023-05-10T10:55:07;2.85;;;1.50;;
26102;SDS011;69760;49.380;8.998;2023-05-10T11:00:19;2.47;;;1.70;;
26102;SDS011;69760;49.380;8.998;2023-05-10T11:02:47;2.05;;;1.50;;
26102;SDS011;69760;49.380;8.998;2023-05-10T11:10:37;5.20;;;1.60;;
26102;SDS011;69760;49.380;8.998;2023-05-10T11:13:06;1.92;;;1.60;;
26102;SDS011;69760;49.380;8.998;2023-05-10T11:15:34;2.72;;;1.45;;
26102;SDS011;69760;49.380;8.998;2023-05-10T11:18:17;3.13;;;1.88;;
26102;SDS011;69760;49.380;8.998;2023-05-10T11:20:45;12.00;;;2.17;;
26102;SDS011;69760;49.380;8.998;2023-05-10T11:23:21;8.63;;;1.95;;
26102;SDS011;69760;49.380;8.998;2023-05-10T11:25:47;6.50;;;2.28;;
26102;SDS011;69760;49.380;8.998;2023-05-10T11:28:13;5.60;;;1.90;;
26102;SDS011;69760;49.380;8.998;2023-05-10T11:30:40;7.30;;;1.85;;
26102;SDS011;69760;49.380;8.998;2023-05-10T11:33:08;3.30;;;1.67;;
26102;SDS011;69760;49.380;8.998;2023-05-10T11:35:40;4.68;;;1.80;;
26102;SDS011;69760;49.380;8.998;2023-05-10T11:38:06;3.35;;;1.67;;
26102;SDS011;69760;49.380;8.998;2023-05-10T11:40:38;3.78;;;1.83;;
26102;SDS011;69760;49.380;8.998;2023-05-10T11:43:08;3.55;;;1.55;;
26102;SDS011;69760;49.380;8.998;2023-05-10T11:56:16;2.50;;;1.40;;
26102;SDS011;69760;49.380;8.998;2023-05-10T11:58:41;2.92;;;1.40;;
26102;SDS011;69760;49.380;8.998;2023-05-10T12:01:07;1.27;;;1.17;;
26102;SDS011;69760;49.380;8.998;2023-05-10T12:03:34;2.08;;;1.40;;
26102;SDS011;69760;49.380;8.998;2023-05-10T12:05:59;2.80;;;1.20;;
26102;SDS011;69760;49.380;8.998;2023-05-10T12:08:27;2.55;;;1.20;;
26102;SDS011;69760;49.380;8.998;2023-05-10T12:10:53;2.13;;;1.40;;
26102;SDS011;69760;49.380;8.998;2023-05-10T12:13:29;1.90;;;1.20;;
26102;SDS011;69760;49.380;8.998;2023-05-10T12:15:57;3.80;;;1.33;;
26102;SDS011;69760;49.380;8.998;2023-05-10T12:18:23;3.42;;;1.38;;
26102;SDS011;69760;49.380;8.998;2023-05-10T12:20:51;3.63;;;1.45;;
26102;SDS011;69760;49.380;8.998;2023-05-10T12:23:18;7.50;;;2.10;;
26102;SDS011;69760;49.380;8.998;2023-05-10T12:25:45;5.97;;;2.10;;
26102;SDS011;69760;49.380;8.998;2023-05-10T12:28:10;6.45;;;2.30;;
26102;SDS011;69760;49.380;8.998;2023-05-10T12:30:36;6.60;;;2.15;;
26102;SDS011;69760;49.380;8.998;2023-05-10T12:33:12;11.27;;;2.30;;
26102;SDS011;69760;49.380;8.998;2023-05-10T12:35:43;5.15;;;2.10;;
26102;SDS011;69760;49.380;8.998;2023-05-10T12:38:24;8.27;;;2.10;;
26102;SDS011;69760;49.380;8.998;2023-05-10T12:41:04;6.07;;;1.83;;
26102;SDS011;69760;49.380;8.998;2023-05-10T12:43:34;5.47;;;2.00;;
26102;SDS011;69760;49.380;8.998;2023-05-10T12:46:33;6.35;;;2.28;;
26102;SDS011;69760;49.380;8.998;2023-05-10T12:48:52;8.70;;;2.13;;
26102;SDS011;69760;49.380;8.998;2023-05-10T12:51:19;5.82;;;1.98;;
26102;SDS011;69760;49.380;8.998;2023-05-10T12:53:47;7.05;;;1.92;;
26102;SDS011;69760;49.380;8.998;2023-05-10T12:56:13;6.97;;;1.75;;
26102;SDS011;69760;49.380;8.998;2023-05-10T12:58:38;5.10;;;2.03;;
26102;SDS011;69760;49.380;8.998;2023-05-10T13:01:04;5.25;;;1.95;;
26102;SDS011;69760;49.380;8.998;2023-05-10T13:03:30;4.40;;;1.67;;
26102;SDS011;69760;49.380;8.998;2023-05-10T13:05:56;5.97;;;1.70;;
26102;SDS011;69760;49.380;8.998;2023-05-10T13:08:21;3.50;;;1.58;;
26102;SDS011;69760;49.380;8.998;2023-05-10T13:10:47;4.78;;;1.60;;
26102;SDS011;69760;49.380;8.998;2023-05-10T13:13:13;3.88;;;1.42;;
26102;SDS011;69760;49.380;8.998;2023-05-10T13:15:40;5.70;;;1.55;;
26102;SDS011;69760;49.380;8.998;2023-05-10T13:18:05;6.22;;;1.40;;
26102;SDS011;69760;49.380;8.998;2023-05-10T13:20:31;5.53;;;1.40;;
26102;SDS011;69760;49.380;8.998;2023-05-10T13:22:56;4.60;;;1.48;;
26102;SDS011;69760;49.380;8.998;2023-05-10T13:25:22;5.10;;;1.38;;
26102;SDS011;69760;49.380;8.998;2023-05-10T13:27:48;4.85;;;1.33;;
26102;SDS011;69760;49.380;8.998;2023-05-10T13:30:14;3.50;;;1.50;;
26102;SDS011;69760;49.380;8.998;2023-05-10T13:32:39;2.50;;;1.40;;
26102;SDS011;69760;49.380;8.998;2023-05-10T13:35:05;2.50;;;1.70;;
26102;SDS011;69760;49.380;8.998;2023-05-10T13:37:31;1.30;;;1.20;;
26102;SDS011;69760;49.380;8.998;2023-05-10T13:40:00;2.22;;;1.15;;
26102;SDS011;69760;49.380;8.998;2023-05-10T13:42:26;1.85;;;1.08;;
26102;SDS011;69760;49.380;8.998;2023-05-10T13:44:52;3.53;;;1.30;;
26102;SDS011;69760;49.380;8.998;2023-05-10T13:47:17;2.88;;;1.40;;
26102;SDS011;69760;49.380;8.998;2023-05-10T13:49:43;2.67;;;1.30;;
26102;SDS011;69760;49.380;8.998;2023-05-10T13:52:08;2.65;;;0.90;;
26102;SDS011;69760;49.380;8.998;2023-05-10T13:54:35;1.98;;;1.17;;
26102;SDS011;69760;49.380;8.998;2023-05-10T13:57:02;2.28;;;1.45;;
26102;SDS011;69760;49.380;8.998;2023-05-10T13:59:28;3.15;;;1.50;;
26102;SDS011;69760;49.380;8.998;2023-05-10T14:01:54;2.42;;;1.23;;
26102;SDS011;69760;49.380;8.998;2023-05-10T14:04:19;2.75;;;1.30;;
26102;SDS011;69760;49.380;8.998;2023-05-10T14:06:45;3.63;;;1.40;;
26102;SDS011;69760;49.380;8.998;2023-05-10T14:09:11;1.25;;;1.15;;
26102;SDS011;69760;49.380;8.998;2023-05-10T14:11:36;1.65;;;1.10;;
26102;SDS011;69760;49.380;8.998;2023-05-10T14:14:06;1.90;;;1.42;;
26102;SDS011;69760;49.380;8.998;2023-05-10T14:16:32;1.20;;;1.02;;
26102;SDS011;69760;49.380;8.998;2023-05-10T14:18:58;2.40;;;1.30;;
26102;SDS011;69760;49.380;8.998;2023-05-10T14:21:23;1.77;;;1.10;;
26102;SDS011;69760;49.380;8.998;2023-05-10T14:23:49;2.88;;;1.30;;
26102;SDS011;69760;49.380;8.998;2023-05-10T14:26:14;1.52;;;1.20;;
26102;SDS011;69760;49.380;8.998;2023-05-10T14:28:40;1.83;;;1.27;;
26102;SDS011;69760;49.380;8.998;2023-05-10T14:31:06;3.70;;;1.50;;
26102;SDS011;69760;49.380;8.998;2023-05-10T14:33:31;2.10;;;1.33;;
26102;SDS011;69760;49.380;8.998;2023-05-10T14:35:57;1.55;;;1.30;;
26102;SDS011;69760;49.380;8.998;2023-05-10T14:38:22;1.55;;;1.30;;
26102;SDS011;69760;49.380;8.998;2023-05-10T14:40:48;3.05;;;1.27;;
26102;SDS011;69760;49.380;8.998;2023-05-10T14:43:14;1.25;;;1.15;;
26102;SDS011;69760;49.380;8.998;2023-05-10T14:45:40;3.25;;;1.40;;
26102;SDS011;69760;49.380;8.998;2023-05-10T14:48:06;2.08;;;1.23;;
26102;SDS011;69760;49.380;8.998;2023-05-10T14:50:36;1.88;;;1.30;;
26102;SDS011;69760;49.380;8.998;2023-05-10T14:53:01;3.65;;;1.40;;
26102;SDS011;69760;49.380;8.998;2023-05-10T14:55:27;1.40;;;1.25;;
26102;SDS011;69760;49.380;8.998;2023-05-10T14:57:52;1.98;;;1.40;;
26102;SDS011;69760;49.380;8.998;2023-05-10T15:00:19;3.63;;;1.35;;
26102;SDS011;69760;49.380;8.998;2023-05-10T15:02:45;2.05;;;1.70;;
26102;SDS011;69760;49.380;8.998;2023-05-10T15:05:10;1.63;;;1.50;;
26102;SDS011;69760;49.380;8.998;2023-05-10T15:07:36;3.42;;;1.33;;
26102;SDS011;69760;49.380;8.998;2023-05-10T15:10:02;1.63;;;1.50;;
26102;SDS011;69760;49.380;8.998;2023-05-10T15:12:28;1.90;;;1.38;;
26102;SDS011;69760;49.380;8.998;2023-05-10T15:14:53;1.40;;;1.30;;
26102;SDS011;69760;49.380;8.998;2023-05-10T15:17:19;1.35;;;1.15;;
26102;SDS011;69760;49.380;8.998;2023-05-10T15:19:44;2.47;;;1.40;;
26102;SDS011;69760;49.380;8.998;2023-05-10T15:22:10;1.52;;;1.30;;
26102;SDS011;69760;49.380;8.998;2023-05-10T15:24:36;1.50;;;1.40;;
26102;SDS011;69760;49.380;8.998;2023-05-10T15:27:02;2.03;;;1.63;;
26102;SDS011;69760;49.380;8.998;2023-05-10T15:29:27;2.45;;;1.35;;
26102;SDS011;69760;49.380;8.998;2023-05-10T15:31:54;2.03;;;1.30;;
26102;SDS011;69760;49.380;8.998;2023-05-10T15:34:20;1.63;;;1.27;;
26102;SDS011;69760;49.380;8.998;2023-05-10T15:36:45;2.28;;;1.15;;
26102;SDS011;69760;49.380;8.998;2023-05-10T15:39:11;1.30;;;1.20;;
26102;SDS011;69760;49.380;8.998;2023-05-10T15:41:37;2.95;;;1.30;;